»·PEaware :: N260JR KBAM-KLOL

N260JR :: KBAM-KLOL

FLIGHT INFORMATION

Flight Status: Arrived
Operator: Privately registered:
United States
More flights under this callsign
Pilot: Alan J. (5709)
Aircraft: AERMACCHI WARRIOR
(F260)
More flights by this aircraft type
Origin: KBAM Battle Mountain
United States
Destination: KLOL Derby
United States
More flights between these airports :: More routes between these airports
Route: +BAM V6 LLC
File this flight plan on PilotEdge
Remarks:
Altitude:
(Current/Filed)
12,000ft
Speed:
(Current/Filed)
160kts
Departed: 20-Feb-19 09:07 PM
Arrived: 20-Feb-19 10:00 PM
Distance/Time
Traveled:
84nm/0:53
Distance/Time
To Go:
Arrived

Flight Plot

Page will automatically refresh every two minutes.

Flight plan parsing failed; only flown route is shown


Map Options




Map Legend


Flown Route
Filed Route
Departure Airport
Arrival Airport
Navaid (VOR, NDB)
Fix

Horizontal Profiles

Position Reports

Time Latitude Longitude Heading Altitude Ground
Speed
20-Feb-19 20:50 40.607218 -116.873894 91 4535ft 0kts
20-Feb-19 20:51 40.607218 -116.873894 91 4535ft 0kts
20-Feb-19 20:52 40.607218 -116.873894 91 4535ft 0kts
20-Feb-19 20:53 40.607051 -116.873901 224 4535ft 2kts
20-Feb-19 20:54 40.606001 -116.874834 262 4535ft 8kts
20-Feb-19 20:55 40.605553 -116.879245 262 4535ft 14kts
20-Feb-19 20:56 40.605359 -116.881202 239 4535ft 0kts
20-Feb-19 20:57 40.605359 -116.881202 239 4535ft 0kts
20-Feb-19 20:58 40.605359 -116.881202 239 4535ft 0kts
20-Feb-19 20:59 40.605359 -116.881202 239 4535ft 0kts
20-Feb-19 21:00 40.605359 -116.881202 239 4535ft 0kts
20-Feb-19 21:01 40.605359 -116.881202 239 4535ft 0kts
20-Feb-19 21:02 40.605359 -116.881202 239 4535ft 0kts
20-Feb-19 21:03 40.605359 -116.881202 239 4535ft 0kts
20-Feb-19 21:04 40.605359 -116.881202 239 4535ft 0kts
20-Feb-19 21:05 40.605342 -116.881281 265 4535ft 2kts
20-Feb-19 21:07 40.598570 -116.874743 143 4553ft 83kts
20-Feb-19 21:08 40.579553 -116.856765 187 5213ft 84kts
20-Feb-19 21:09 40.555833 -116.865551 201 6045ft 87kts
20-Feb-19 21:10 40.533083 -116.858830 150 6895ft 91kts
20-Feb-19 21:11 40.517133 -116.870804 293 7725ft 89kts
20-Feb-19 21:12 40.529163 -116.896385 280 8517ft 84kts
20-Feb-19 21:13 40.533560 -116.931790 279 9003ft 110kts
20-Feb-19 21:14 40.538875 -116.974056 279 9437ft 122kts
20-Feb-19 21:15 40.541332 -117.020219 261 9876ft 136kts
20-Feb-19 21:16 40.530454 -117.070709 252 10304ft 149kts
20-Feb-19 21:17 40.517449 -117.120927 252 10964ft 140kts
20-Feb-19 21:18 40.505156 -117.166672 252 11639ft 124kts
20-Feb-19 21:19 40.493589 -117.209923 254 11984ft 138kts
20-Feb-19 21:20 40.480228 -117.261094 253 11979ft 155kts
20-Feb-19 21:21 40.465893 -117.315613 253 11979ft 160kts
20-Feb-19 21:22 40.451249 -117.371090 253 11980ft 161kts
20-Feb-19 21:23 40.436533 -117.427732 254 11980ft 166kts
20-Feb-19 21:24 40.421195 -117.485086 253 11974ft 165kts
20-Feb-19 21:25 40.406192 -117.540771 254 11980ft 160kts
20-Feb-19 21:25 40.394013 -117.587160 254 11982ft 162kts
20-Feb-19 21:27 40.379332 -117.642324 254 11982ft 163kts
20-Feb-19 21:28 40.364275 -117.698682 254 11983ft 163kts
20-Feb-19 21:28 40.351758 -117.745653 254 11985ft 164kts
20-Feb-19 21:29 40.336600 -117.802282 254 11985ft 165kts
20-Feb-19 21:30 40.321385 -117.858876 254 11990ft 164kts
20-Feb-19 21:31 40.306096 -117.915584 254 11991ft 164kts
20-Feb-19 21:32 40.290883 -117.971912 254 11992ft 164kts
20-Feb-19 21:33 40.275655 -118.028422 254 11993ft 164kts
20-Feb-19 21:34 40.260368 -118.084780 254 11994ft 164kts
20-Feb-19 21:35 40.244584 -118.142322 253 11997ft 169kts
20-Feb-19 21:36 40.228698 -118.200602 253 11997ft 170kts
20-Feb-19 21:37 40.212696 -118.259173 253 11998ft 170kts
20-Feb-19 21:38 40.196699 -118.317590 253 11998ft 170kts
20-Feb-19 21:39 40.180703 -118.375871 253 11999ft 170kts
20-Feb-19 21:40 40.164686 -118.434307 253 11999ft 170kts
20-Feb-19 21:41 40.148613 -118.492597 253 12000ft 170kts
20-Feb-19 21:42 40.132462 -118.550858 251 12000ft 171kts
20-Feb-19 21:43 40.107716 -118.604878 248 11996ft 172kts
20-Feb-19 21:44 40.090076 -118.664931 252 11361ft 184kts
20-Feb-19 21:45 40.072787 -118.728680 252 10560ft 187kts
20-Feb-19 21:46 40.056465 -118.792447 252 9997ft 177kts
20-Feb-19 21:47 40.038124 -118.849482 244 9996ft 163kts
20-Feb-19 21:48 40.017420 -118.900365 224 9998ft 157kts
20-Feb-19 21:49 39.976528 -118.904884 134 10018ft 160kts
20-Feb-19 21:50 39.963534 -118.846909 112 9503ft 178kts
20-Feb-19 21:51 39.946403 -118.791493 112 8677ft 155kts
20-Feb-19 21:52 39.941186 -118.738098 70 7762ft 161kts
20-Feb-19 21:53 39.955925 -118.686990 62 6734ft 144kts
20-Feb-19 21:54 39.982235 -118.654886 46 5975ft 114kts
20-Feb-19 21:55 40.004073 -118.633867 28 5487ft 88kts
20-Feb-19 21:56 40.022555 -118.615196 42 5050ft 81kts
20-Feb-19 21:57 40.036925 -118.592774 42 4584ft 83kts
20-Feb-19 21:58 40.055733 -118.577482 28 4172ft 83kts
20-Feb-19 21:59 40.068100 -118.568211 4 3907ft 10kts
20-Feb-19 22:00 40.069784 -118.568962 319 3907ft 3kts
20-Feb-19 22:01 40.070156 -118.569301 24 3907ft 2kts
20-Feb-19 22:02 40.070165 -118.569295 24 3907ft 0kts

Navigation Log

Ident Type
Flight plan parsing failed, navigation log unavailable